Golom — IBAM — position and weather

sailwx.info

Track history (hours):
 
Tides and Currents Weather Stations Pressure Air Temp Water Temp Dewpoint Dewpoint Depression Visibility Wind Speed Wind Dir Waves Ship Positions

Golom

Last reported at 2017-Oct-19 11:07 UTC. Time now 2017-Oct-19 16:24 UTC.
Position N 37°52' W 000°15'.

MMSI: 247003300.

Date/timePositionNaut miles runAvg speedWind from/ knotsBaromVisibWave heightAir tempDewpointWater temp
2017-Oct-19 11:07N 37°52' W 000°15'620.9
2017-Oct-19 10:51N 37°48' W 000°19'720.7
2017-Oct-19 10:30N 37°41' W 000°23'1020.8
2017-Oct-19 10:00N 37°33' W 000°31'1020.8
2017-Oct-19 09:30N 37°26' W 000°41'1020.8
2017-Oct-19 09:00N 37°19' W 000°51'1120.7
2017-Oct-19 08:28N 37°12' W 001°01'20420.1
2017-Oct-18 22:19N 36°01' W 004°59'723.2
2017-Oct-18 22:00N 35°60' W 005°08'1223.5
2017-Oct-18 21:31N 35°58' W 005°23'8 1.1
2017-Oct-18 13:49N 35°53' W 005°31'2 6.7
2017-Oct-18 13:30N 35°55' W 005°31'713.3
2017-Oct-18 13:00N 35°60' W 005°25'917.7
2017-Oct-18 12:30N 36°02' W 005°15'21919.5
2017-Oct-18 01:15N 37°16' W 000°58'520.4
2017-Oct-18 01:00N 37°20' W 000°53'1019.8
2017-Oct-18 00:30N 37°27' W 000°45'1020.5
2017-Oct-18 00:00N 37°34' W 000°35'1020.4
2017-Oct-17 23:30N 37°42' W 000°28'1020.5
2017-Oct-17 23:00N 37°51' W 000°21'1020.4
2017-Oct-17 22:29N 37°60' W 000°14'2420.3
2017-Oct-17 21:17N 38°20' E 000°04'720.6
2017-Oct-17 20:57N 38°25' E 000°09'17520.3
2017-Oct-17 12:21N 40°59' E 001°57'720.1
2017-Oct-17 12:00N 41°05' E 002°01'1419.2
2017-Oct-17 11:16N 41°18' E 002°10'1 0.1
2017-Oct-17 05:46N 41°18' E 002°10'10419.8
2017-Oct-17 00:31N 42°02' E 004°16'720.7
2017-Oct-17 00:10N 42°06' E 004°25'320.6
2017-Oct-17 00:00N 42°07' E 004°29'1020.4
2017-Oct-16 23:30N 42°12' E 004°41'1020.2
2017-Oct-16 23:00N 42°17' E 004°53'1020.3
2017-Oct-16 22:30N 42°23' E 005°04'1020.4
2017-Oct-16 22:00N 42°28' E 005°16'1020.3
2017-Oct-16 21:30N 42°33' E 005°28'1020.2
2017-Oct-16 21:00N 42°37' E 005°41'1020.6
2017-Oct-16 20:31N 42°41' E 005°54'1121.0
2017-Oct-16 19:58N 42°46' E 006°07'1021.1
2017-Oct-16 19:29N 42°50' E 006°20'1021.1
2017-Oct-16 19:00N 42°55' E 006°32'1121.1
2017-Oct-16 18:28N 43°02' E 006°45'1020.8
2017-Oct-16 18:00N 43°07' E 006°55'1020.7
2017-Oct-16 17:30N 43°14' E 007°07'1020.7
2017-Oct-16 17:00N 43°20' E 007°18'1020.8
2017-Oct-16 16:30N 43°26' E 007°30'1120.9
2017-Oct-16 16:00N 43°33' E 007°41'1021.1
2017-Oct-16 15:30N 43°39' E 007°53'1020.9
2017-Oct-16 15:00N 43°45' E 008°05'2120.9
2017-Oct-16 14:00N 43°58' E 008°26'1020.6
2017-Oct-16 13:30N 44°06' E 008°36'1020.3
2017-Oct-16 13:00N 44°12' E 008°47'1020.5
2017-Oct-16 12:30N 44°19' E 008°58'510.7
2017-Oct-16 11:59N 44°24' E 008°55'0 0.0
2017-Oct-16 11:29N 44°24' E 008°55'0 0.0
2017-Oct-16 10:53N 44°24' E 008°55'0 0.0
2017-Oct-16 10:29N 44°24' E 008°55'0 0.0
2017-Oct-16 09:56N 44°24' E 008°55'0 0.0
2017-Oct-16 09:29N 44°24' E 008°55'0 0.0
2017-Oct-16 08:59N 44°24' E 008°55'0 0.0
2017-Oct-16 08:26N 44°24' E 008°55'0 0.0
2017-Oct-16 07:59N 44°24' E 008°55'0 0.0
2017-Oct-16 07:29N 44°24' E 008°55'0 0.0
2017-Oct-16 06:59N 44°24' E 008°55'0 0.0
2017-Oct-16 06:29N 44°24' E 008°55'0 0.0
2017-Oct-16 05:59N 44°24' E 008°55'0 0.0
2017-Oct-16 05:29N 44°24' E 008°55'0 0.0
2017-Oct-16 04:59N 44°24' E 008°55'0 0.0
2017-Oct-16 04:29N 44°24' E 008°55'0 0.0
2017-Oct-16 03:59N 44°24' E 008°55'0 0.0
2017-Oct-16 03:29N 44°24' E 008°55'0 0.0
2017-Oct-16 02:59N 44°24' E 008°55'0 0.0
2017-Oct-16 02:29N 44°24' E 008°55'0 0.0
2017-Oct-16 01:59N 44°24' E 008°55'0 0.0
2017-Oct-16 01:29N 44°24' E 008°55'0 0.0
2017-Oct-16 00:59N 44°24' E 008°55'0 0.0
2017-Oct-16 00:23N 44°24' E 008°55'0 0.0
2017-Oct-15 23:59N 44°24' E 008°55'0 0.0
2017-Oct-15 23:23N 44°24' E 008°55'0 0.0
2017-Oct-15 22:56N 44°24' E 008°55'0 0.0
2017-Oct-15 22:29N 44°24' E 008°55'0 0.0
2017-Oct-15 21:59N 44°24' E 008°55'0 0.0
2017-Oct-15 21:29N 44°24' E 008°55'0 0.0
2017-Oct-15 20:59N 44°24' E 008°55'0 0.0
2017-Oct-15 20:29N 44°24' E 008°55'0 0.0
2017-Oct-15 19:59N 44°24' E 008°55'0 0.0
2017-Oct-15 19:30N 44°24' E 008°55'0 0.0
2017-Oct-15 19:00N 44°24' E 008°55'0 0.0
2017-Oct-15 18:30N 44°24' E 008°55'0 0.0
2017-Oct-15 18:00N 44°24' E 008°55'0 0.0
2017-Oct-15 17:30N 44°24' E 008°55'0 0.3
2017-Oct-15 17:00N 44°24' E 008°55'3 5.1
2017-Oct-15 16:30N 44°23' E 008°57'4 8.3
2017-Oct-15 16:00N 44°19' E 008°58'918.3
2017-Oct-15 15:30N 44°13' E 008°48'918.5
2017-Oct-15 15:00N 44°06' E 008°39'1818.3
2017-Oct-15 14:00N 43°54' E 008°20'918.0
2017-Oct-15 13:30N 43°48' E 008°10'1017.9
2017-Oct-15 12:55N 43°42' E 007°58'1218.0
2017-Oct-15 12:16N 43°35' E 007°46'518.0
2017-Oct-15 12:00N 43°32' E 007°41'917.9
2017-Oct-15 11:29N 43°27' E 007°30'918.0
2017-Oct-15 10:59N 43°21' E 007°20'918.4
2017-Oct-15 10:30N 43°16' E 007°11'918.1
2017-Oct-15 10:00N 43°10' E 007°01'2117.8
2017-Oct-15 08:48N 42°57' E 006°37'1717.5
2017-Oct-15 07:48N 42°50' E 006°16'817.8
2017-Oct-15 07:22N 42°46' E 006°07'918.0
2017-Oct-15 06:53N 42°43' E 005°56'718.2
2017-Oct-15 06:30N 42°39' E 005°47'918.4
2017-Oct-15 06:00N 42°35' E 005°36'1018.3
2017-Oct-15 05:26N 42°30' E 005°24'918.5
2017-Oct-15 04:57N 42°26' E 005°13'1018.4
2017-Oct-15 04:25N 42°22' E 005°02'1218.4
2017-Oct-15 03:47N 42°17' E 004°47'718.4
2017-Oct-15 03:25N 42°13' E 004°39'1418.5
2017-Oct-15 02:40N 42°07' E 004°23'418.4
2017-Oct-15 02:27N 42°05' E 004°18'918.3
2017-Oct-15 01:56N 42°01' E 004°07'918.3
2017-Oct-15 01:27N 41°57' E 003°56'8511.4
2017-Oct-14 17:57N 41°19' E 002°14'818.6
2017-Oct-14 17:30N 41°11' E 002°09'1418.7
2017-Oct-14 16:43N 40°59' E 001°60'418.7
2017-Oct-14 16:30N 40°55' E 001°58'1018.9
2017-Oct-14 15:59N 40°46' E 001°52'918.9
2017-Oct-14 15:30N 40°38' E 001°47'13818.8
2017-Oct-14 08:10N 38°36' E 000°23'318.5
2017-Oct-14 08:00N 38°34' E 000°21'918.4
2017-Oct-14 07:30N 38°26' E 000°14'1518.2
2017-Oct-14 06:40N 38°14' E 000°03'918.1
2017-Oct-14 06:11N 38°06' W 000°03'318.1
2017-Oct-14 06:00N 38°04' W 000°05'1218.2
2017-Oct-14 05:22N 37°54' W 000°13'918.2
2017-Oct-14 04:54N 37°47' W 000°19'718.3
2017-Oct-14 04:30N 37°41' W 000°24'918.5
2017-Oct-14 04:00N 37°33' W 000°31'918.6
2017-Oct-14 03:30N 37°27' W 000°39'918.5
2017-Oct-14 03:00N 37°20' W 000°48'918.4
2017-Oct-14 02:30N 37°14' W 000°56'918.4
2017-Oct-14 02:00N 37°08' W 001°05'918.4
2017-Oct-14 01:30N 37°02' W 001°14'918.4
2017-Oct-14 01:00N 36°56' W 001°22'1418.3
2017-Oct-14 00:14N 36°46' W 001°35'517.8
2017-Oct-13 23:58N 36°43' W 001°39'918.4
2017-Oct-13 23:30N 36°37' W 001°47'16918.5
2017-Oct-13 14:23N 35°60' W 005°11'819.9
2017-Oct-13 14:00N 35°58' W 005°20'10 1.6
2017-Oct-13 07:56N 35°53' W 005°31'4 9.8
2017-Oct-13 07:31N 35°57' W 005°30'815.3
2017-Oct-13 07:01N 36°01' W 005°22'817.0
2017-Oct-13 06:30N 36°02' W 005°12'17817.7
2017-Oct-12 20:25N 36°49' W 001°38'1018.7
2017-Oct-12 19:52N 36°56' W 001°29'818.7
2017-Oct-12 19:28N 37°01' W 001°22'918.6
2017-Oct-12 19:00N 37°07' W 001°13'918.6
2017-Oct-12 18:30N 37°13' W 001°04'1018.4
2017-Oct-12 17:58N 37°19' W 000°55'818.3
2017-Oct-12 17:31N 37°25' W 000°47'1018.1
2017-Oct-12 16:58N 37°31' W 000°38'818.0
2017-Oct-12 16:30N 37°37' W 000°31'918.3
2017-Oct-12 16:01N 37°45' W 000°24'918.2
2017-Oct-12 15:30N 37°53' W 000°18'918.3
2017-Oct-12 15:00N 38°00' W 000°12'918.4
2017-Oct-12 14:31N 38°08' W 000°05'918.5
2017-Oct-12 14:00N 38°16' E 000°01'918.3
2017-Oct-12 13:31N 38°23' E 000°08'1018.1
2017-Oct-12 12:59N 38°31' E 000°15'2617.7
2017-Oct-12 11:30N 38°53' E 000°33'165 3.9
2017-Oct-10 17:32N 41°19' E 002°14'116.4
2017-Oct-10 17:30N 41°19' E 002°14'918.5
2017-Oct-10 17:00N 41°10' E 002°08'1218.8
2017-Oct-10 16:22N 40°60' E 002°01'16219.2
2017-Oct-10 07:57N 38°36' E 000°24'5018.8
2017-Oct-10 05:19N 37°55' W 000°12'818.6
2017-Oct-10 04:53N 37°48' W 000°17'718.7
2017-Oct-10 04:30N 37°42' W 000°22'918.5
2017-Oct-10 04:01N 37°34' W 000°28'1218.4
2017-Oct-10 03:22N 37°26' W 000°38'718.7
2017-Oct-10 03:00N 37°22' W 000°45'1018.9
2017-Oct-10 02:30N 37°16' W 000°54'918.9
2017-Oct-10 02:00N 37°09' W 001°03'  
Track history (hours):
 
Tides and Currents Weather Stations Pressure Air Temp Water Temp Dewpoint Dewpoint Depression Visibility Wind Speed Wind Dir Waves Ship Positions

Golom

Last reported at 2017-Oct-19 11:07 UTC. Time now 2017-Oct-19 16:24 UTC.
Position N 37°52' W 000°15'.

MMSI: 247003300.

Date/timePositionNaut miles runAvg speedWind from/ knotsBaromVisibWave heightAir tempDewpointWater temp
2017-Oct-19 11:07N 37°52' W 000°15'620.9
2017-Oct-19 10:51N 37°48' W 000°19'720.7
2017-Oct-19 10:30N 37°41' W 000°23'1020.8
2017-Oct-19 10:00N 37°33' W 000°31'1020.8
2017-Oct-19 09:30N 37°26' W 000°41'1020.8
2017-Oct-19 09:00N 37°19' W 000°51'1120.7
2017-Oct-19 08:28N 37°12' W 001°01'20420.1
2017-Oct-18 22:19N 36°01' W 004°59'723.2
2017-Oct-18 22:00N 35°60' W 005°08'1223.5
2017-Oct-18 21:31N 35°58' W 005°23'8 1.1
2017-Oct-18 13:49N 35°53' W 005°31'2 6.7
2017-Oct-18 13:30N 35°55' W 005°31'713.3
2017-Oct-18 13:00N 35°60' W 005°25'917.7
2017-Oct-18 12:30N 36°02' W 005°15'21919.5
2017-Oct-18 01:15N 37°16' W 000°58'520.4
2017-Oct-18 01:00N 37°20' W 000°53'1019.8
2017-Oct-18 00:30N 37°27' W 000°45'1020.5
2017-Oct-18 00:00N 37°34' W 000°35'1020.4
2017-Oct-17 23:30N 37°42' W 000°28'1020.5
2017-Oct-17 23:00N 37°51' W 000°21'1020.4
2017-Oct-17 22:29N 37°60' W 000°14'2420.3
2017-Oct-17 21:17N 38°20' E 000°04'720.6
2017-Oct-17 20:57N 38°25' E 000°09'17520.3
2017-Oct-17 12:21N 40°59' E 001°57'720.1
2017-Oct-17 12:00N 41°05' E 002°01'1419.2
2017-Oct-17 11:16N 41°18' E 002°10'1 0.1
2017-Oct-17 05:46N 41°18' E 002°10'10419.8
2017-Oct-17 00:31N 42°02' E 004°16'720.7
2017-Oct-17 00:10N 42°06' E 004°25'320.6
2017-Oct-17 00:00N 42°07' E 004°29'1020.4
2017-Oct-16 23:30N 42°12' E 004°41'1020.2
2017-Oct-16 23:00N 42°17' E 004°53'1020.3
2017-Oct-16 22:30N 42°23' E 005°04'1020.4
2017-Oct-16 22:00N 42°28' E 005°16'1020.3
2017-Oct-16 21:30N 42°33' E 005°28'1020.2
2017-Oct-16 21:00N 42°37' E 005°41'1020.6
2017-Oct-16 20:31N 42°41' E 005°54'1121.0
2017-Oct-16 19:58N 42°46' E 006°07'1021.1
2017-Oct-16 19:29N 42°50' E 006°20'1021.1
2017-Oct-16 19:00N 42°55' E 006°32'1121.1
2017-Oct-16 18:28N 43°02' E 006°45'1020.8
2017-Oct-16 18:00N 43°07' E 006°55'1020.7
2017-Oct-16 17:30N 43°14' E 007°07'1020.7
2017-Oct-16 17:00N 43°20' E 007°18'1020.8
2017-Oct-16 16:30N 43°26' E 007°30'1120.9
2017-Oct-16 16:00N 43°33' E 007°41'1021.1
2017-Oct-16 15:30N 43°39' E 007°53'1020.9
2017-Oct-16 15:00N 43°45' E 008°05'2120.9
2017-Oct-16 14:00N 43°58' E 008°26'1020.6
2017-Oct-16 13:30N 44°06' E 008°36'1020.3
2017-Oct-16 13:00N 44°12' E 008°47'1020.5
2017-Oct-16 12:30N 44°19' E 008°58'510.7
2017-Oct-16 11:59N 44°24' E 008°55'0 0.0
2017-Oct-16 11:29N 44°24' E 008°55'0 0.0
2017-Oct-16 10:53N 44°24' E 008°55'0 0.0
2017-Oct-16 10:29N 44°24' E 008°55'0 0.0
2017-Oct-16 09:56N 44°24' E 008°55'0 0.0
2017-Oct-16 09:29N 44°24' E 008°55'0 0.0
2017-Oct-16 08:59N 44°24' E 008°55'0 0.0
2017-Oct-16 08:26N 44°24' E 008°55'0 0.0
2017-Oct-16 07:59N 44°24' E 008°55'0 0.0
2017-Oct-16 07:29N 44°24' E 008°55'0 0.0
2017-Oct-16 06:59N 44°24' E 008°55'0 0.0
2017-Oct-16 06:29N 44°24' E 008°55'0 0.0
2017-Oct-16 05:59N 44°24' E 008°55'0 0.0
2017-Oct-16 05:29N 44°24' E 008°55'0 0.0
2017-Oct-16 04:59N 44°24' E 008°55'0 0.0
2017-Oct-16 04:29N 44°24' E 008°55'0 0.0
2017-Oct-16 03:59N 44°24' E 008°55'0 0.0
2017-Oct-16 03:29N 44°24' E 008°55'0 0.0
2017-Oct-16 02:59N 44°24' E 008°55'0 0.0
2017-Oct-16 02:29N 44°24' E 008°55'0 0.0
2017-Oct-16 01:59N 44°24' E 008°55'0 0.0
2017-Oct-16 01:29N 44°24' E 008°55'0 0.0
2017-Oct-16 00:59N 44°24' E 008°55'0 0.0
2017-Oct-16 00:23N 44°24' E 008°55'0 0.0
2017-Oct-15 23:59N 44°24' E 008°55'0 0.0
2017-Oct-15 23:23N 44°24' E 008°55'0 0.0
2017-Oct-15 22:56N 44°24' E 008°55'0 0.0
2017-Oct-15 22:29N 44°24' E 008°55'0 0.0
2017-Oct-15 21:59N 44°24' E 008°55'0 0.0
2017-Oct-15 21:29N 44°24' E 008°55'0 0.0
2017-Oct-15 20:59N 44°24' E 008°55'0 0.0
2017-Oct-15 20:29N 44°24' E 008°55'0 0.0
2017-Oct-15 19:59N 44°24' E 008°55'0 0.0
2017-Oct-15 19:30N 44°24' E 008°55'0 0.0
2017-Oct-15 19:00N 44°24' E 008°55'0 0.0
2017-Oct-15 18:30N 44°24' E 008°55'0 0.0
2017-Oct-15 18:00N 44°24' E 008°55'0 0.0
2017-Oct-15 17:30N 44°24' E 008°55'0 0.3
2017-Oct-15 17:00N 44°24' E 008°55'3 5.1
2017-Oct-15 16:30N 44°23' E 008°57'4 8.3
2017-Oct-15 16:00N 44°19' E 008°58'918.3
2017-Oct-15 15:30N 44°13' E 008°48'918.5
2017-Oct-15 15:00N 44°06' E 008°39'1818.3
2017-Oct-15 14:00N 43°54' E 008°20'918.0
2017-Oct-15 13:30N 43°48' E 008°10'1017.9
2017-Oct-15 12:55N 43°42' E 007°58'1218.0
2017-Oct-15 12:16N 43°35' E 007°46'518.0
2017-Oct-15 12:00N 43°32' E 007°41'917.9
2017-Oct-15 11:29N 43°27' E 007°30'918.0
2017-Oct-15 10:59N 43°21' E 007°20'918.4
2017-Oct-15 10:30N 43°16' E 007°11'918.1
2017-Oct-15 10:00N 43°10' E 007°01'2117.8
2017-Oct-15 08:48N 42°57' E 006°37'1717.5
2017-Oct-15 07:48N 42°50' E 006°16'817.8
2017-Oct-15 07:22N 42°46' E 006°07'918.0
2017-Oct-15 06:53N 42°43' E 005°56'718.2
2017-Oct-15 06:30N 42°39' E 005°47'918.4
2017-Oct-15 06:00N 42°35' E 005°36'1018.3
2017-Oct-15 05:26N 42°30' E 005°24'918.5
2017-Oct-15 04:57N 42°26' E 005°13'1018.4
2017-Oct-15 04:25N 42°22' E 005°02'1218.4
2017-Oct-15 03:47N 42°17' E 004°47'718.4
2017-Oct-15 03:25N 42°13' E 004°39'1418.5
2017-Oct-15 02:40N 42°07' E 004°23'418.4
2017-Oct-15 02:27N 42°05' E 004°18'918.3
2017-Oct-15 01:56N 42°01' E 004°07'918.3
2017-Oct-15 01:27N 41°57' E 003°56'8511.4
2017-Oct-14 17:57N 41°19' E 002°14'818.6
2017-Oct-14 17:30N 41°11' E 002°09'1418.7
2017-Oct-14 16:43N 40°59' E 001°60'418.7
2017-Oct-14 16:30N 40°55' E 001°58'1018.9
2017-Oct-14 15:59N 40°46' E 001°52'918.9
2017-Oct-14 15:30N 40°38' E 001°47'13818.8
2017-Oct-14 08:10N 38°36' E 000°23'318.5
2017-Oct-14 08:00N 38°34' E 000°21'918.4
2017-Oct-14 07:30N 38°26' E 000°14'1518.2
2017-Oct-14 06:40N 38°14' E 000°03'918.1
2017-Oct-14 06:11N 38°06' W 000°03'318.1
2017-Oct-14 06:00N 38°04' W 000°05'1218.2
2017-Oct-14 05:22N 37°54' W 000°13'918.2
2017-Oct-14 04:54N 37°47' W 000°19'718.3
2017-Oct-14 04:30N 37°41' W 000°24'918.5
2017-Oct-14 04:00N 37°33' W 000°31'918.6
2017-Oct-14 03:30N 37°27' W 000°39'918.5
2017-Oct-14 03:00N 37°20' W 000°48'918.4
2017-Oct-14 02:30N 37°14' W 000°56'918.4
2017-Oct-14 02:00N 37°08' W 001°05'918.4
2017-Oct-14 01:30N 37°02' W 001°14'918.4
2017-Oct-14 01:00N 36°56' W 001°22'1418.3
2017-Oct-14 00:14N 36°46' W 001°35'517.8
2017-Oct-13 23:58N 36°43' W 001°39'918.4
2017-Oct-13 23:30N 36°37' W 001°47'16918.5
2017-Oct-13 14:23N 35°60' W 005°11'819.9
2017-Oct-13 14:00N 35°58' W 005°20'10 1.6
2017-Oct-13 07:56N 35°53' W 005°31'4 9.8
2017-Oct-13 07:31N 35°57' W 005°30'815.3
2017-Oct-13 07:01N 36°01' W 005°22'817.0
2017-Oct-13 06:30N 36°02' W 005°12'17817.7
2017-Oct-12 20:25N 36°49' W 001°38'1018.7
2017-Oct-12 19:52N 36°56' W 001°29'818.7
2017-Oct-12 19:28N 37°01' W 001°22'918.6
2017-Oct-12 19:00N 37°07' W 001°13'918.6
2017-Oct-12 18:30N 37°13' W 001°04'1018.4
2017-Oct-12 17:58N 37°19' W 000°55'818.3
2017-Oct-12 17:31N 37°25' W 000°47'1018.1
2017-Oct-12 16:58N 37°31' W 000°38'818.0
2017-Oct-12 16:30N 37°37' W 000°31'918.3
2017-Oct-12 16:01N 37°45' W 000°24'918.2
2017-Oct-12 15:30N 37°53' W 000°18'918.3
2017-Oct-12 15:00N 38°00' W 000°12'918.4
2017-Oct-12 14:31N 38°08' W 000°05'918.5
2017-Oct-12 14:00N 38°16' E 000°01'918.3
2017-Oct-12 13:31N 38°23' E 000°08'1018.1
2017-Oct-12 12:59N 38°31' E 000°15'2617.7
2017-Oct-12 11:30N 38°53' E 000°33'165 3.9
2017-Oct-10 17:32N 41°19' E 002°14'116.4
2017-Oct-10 17:30N 41°19' E 002°14'918.5
2017-Oct-10 17:00N 41°10' E 002°08'1218.8
2017-Oct-10 16:22N 40°60' E 002°01'16219.2
2017-Oct-10 07:57N 38°36' E 000°24'5018.8
2017-Oct-10 05:19N 37°55' W 000°12'818.6
2017-Oct-10 04:53N 37°48' W 000°17'718.7
2017-Oct-10 04:30N 37°42' W 000°22'918.5
2017-Oct-10 04:01N 37°34' W 000°28'1218.4
2017-Oct-10 03:22N 37°26' W 000°38'718.7
2017-Oct-10 03:00N 37°22' W 000°45'1018.9
2017-Oct-10 02:30N 37°16' W 000°54'918.9
2017-Oct-10 02:00N 37°09' W 001°03'  

Dump ship's entire track history